Lake Lotawana, Missouri
Current Conditions -  °F | °C
As of 12:36 AM on Saturday 20 Dec 2014 (Local Time) from KLXT Reporting Station
Haze Haze  
Wind Chill: 34°   Ceiling: 200
Heat Index: 34°   Visibility: 3mi
Dew Point: 33°   Wind: 3mph
Humidity: 96%   Direction: 260°W
Pressure: 30.2"   Gusts: NA
Location:  38.908°N, 94.2968°W
Report Text: KLXT 200636Z AUTO 26003KT 3SM BR OVC002 01/01 A3020 RMK AO2 T00110006 TSNO
Loading
Personal Weather Stations






























Interactive Weather Map New forecast layout! Learn more

10-Day Weather Forecast

Advertisements
Track Severe Weather on mobile